sensor_id;sensor_type;location;lat;lon;timestamp;P1;durP1;ratioP1;P2;durP2;ratioP2
65567;SDS011;52211;50.154;8.682;2024-01-07T00:02:19;2.70;;;2.50;;
65567;SDS011;52211;50.154;8.682;2024-01-07T00:04:51;2.73;;;2.30;;
65567;SDS011;52211;50.154;8.682;2024-01-07T00:07:23;3.37;;;2.63;;
65567;SDS011;52211;50.154;8.682;2024-01-07T00:09:50;2.93;;;2.63;;
65567;SDS011;52211;50.154;8.682;2024-01-07T00:12:20;3.33;;;3.03;;
65567;SDS011;52211;50.154;8.682;2024-01-07T00:14:47;3.00;;;2.57;;
65567;SDS011;52211;50.154;8.682;2024-01-07T00:17:21;3.53;;;2.87;;
65567;SDS011;52211;50.154;8.682;2024-01-07T00:19:50;3.20;;;2.90;;
65567;SDS011;52211;50.154;8.682;2024-01-07T00:22:19;3.03;;;2.60;;
65567;SDS011;52211;50.154;8.682;2024-01-07T00:24:46;3.47;;;2.47;;
65567;SDS011;52211;50.154;8.682;2024-01-07T00:27:13;3.27;;;2.97;;
65567;SDS011;52211;50.154;8.682;2024-01-07T00:29:44;3.23;;;2.53;;
65567;SDS011;52211;50.154;8.682;2024-01-07T00:32:11;3.90;;;3.10;;
65567;SDS011;52211;50.154;8.682;2024-01-07T00:34:38;3.03;;;2.70;;
65567;SDS011;52211;50.154;8.682;2024-01-07T00:37:05;2.87;;;2.67;;
65567;SDS011;52211;50.154;8.682;2024-01-07T00:39:39;3.10;;;2.80;;
65567;SDS011;52211;50.154;8.682;2024-01-07T00:42:08;2.90;;;2.50;;
65567;SDS011;52211;50.154;8.682;2024-01-07T00:44:42;3.23;;;2.90;;
65567;SDS011;52211;50.154;8.682;2024-01-07T00:47:09;2.87;;;2.53;;
65567;SDS011;52211;50.154;8.682;2024-01-07T00:49:39;3.03;;;2.73;;
65567;SDS011;52211;50.154;8.682;2024-01-07T00:52:11;3.00;;;2.70;;
65567;SDS011;52211;50.154;8.682;2024-01-07T00:54:38;2.97;;;2.70;;
65567;SDS011;52211;50.154;8.682;2024-01-07T00:57:10;2.40;;;2.20;;
65567;SDS011;52211;50.154;8.682;2024-01-07T00:59:40;2.60;;;2.40;;
65567;SDS011;52211;50.154;8.682;2024-01-07T01:02:09;3.23;;;2.93;;
65567;SDS011;52211;50.154;8.682;2024-01-07T01:04:38;3.27;;;2.97;;
65567;SDS011;52211;50.154;8.682;2024-01-07T01:07:11;2.97;;;2.67;;
65567;SDS011;52211;50.154;8.682;2024-01-07T01:09:40;3.93;;;2.70;;
65567;SDS011;52211;50.154;8.682;2024-01-07T01:12:07;3.50;;;2.53;;
65567;SDS011;52211;50.154;8.682;2024-01-07T01:14:38;2.93;;;2.63;;
65567;SDS011;52211;50.154;8.682;2024-01-07T01:17:05;3.03;;;2.40;;
65567;SDS011;52211;50.154;8.682;2024-01-07T01:19:37;2.73;;;2.20;;
65567;SDS011;52211;50.154;8.682;2024-01-07T01:22:04;2.50;;;2.30;;
65567;SDS011;52211;50.154;8.682;2024-01-07T01:24:31;2.97;;;2.67;;
65567;SDS011;52211;50.154;8.682;2024-01-07T01:26:58;3.40;;;2.53;;
65567;SDS011;52211;50.154;8.682;2024-01-07T01:29:26;3.00;;;2.37;;
65567;SDS011;52211;50.154;8.682;2024-01-07T01:31:57;2.30;;;2.10;;
65567;SDS011;52211;50.154;8.682;2024-01-07T01:34:27;2.40;;;2.20;;
65567;SDS011;52211;50.154;8.682;2024-01-07T01:36:54;2.03;;;1.83;;
65567;SDS011;52211;50.154;8.682;2024-01-07T01:39:25;2.13;;;1.93;;
65567;SDS011;52211;50.154;8.682;2024-01-07T01:41:52;2.33;;;2.13;;
65567;SDS011;52211;50.154;8.682;2024-01-07T01:44:19;2.27;;;1.90;;
65567;SDS011;52211;50.154;8.682;2024-01-07T01:46:49;2.00;;;1.80;;
65567;SDS011;52211;50.154;8.682;2024-01-07T01:49:19;2.43;;;2.07;;
65567;SDS011;52211;50.154;8.682;2024-01-07T01:51:47;2.10;;;1.90;;
65567;SDS011;52211;50.154;8.682;2024-01-07T01:54:16;2.83;;;2.27;;
65567;SDS011;52211;50.154;8.682;2024-01-07T01:56:43;2.30;;;2.10;;
65567;SDS011;52211;50.154;8.682;2024-01-07T01:59:16;1.80;;;1.67;;
65567;SDS011;52211;50.154;8.682;2024-01-07T02:01:44;1.60;;;1.50;;
65567;SDS011;52211;50.154;8.682;2024-01-07T02:04:15;2.33;;;2.03;;
65567;SDS011;52211;50.154;8.682;2024-01-07T02:06:47;2.77;;;2.00;;
65567;SDS011;52211;50.154;8.682;2024-01-07T02:09:14;2.00;;;1.80;;
65567;SDS011;52211;50.154;8.682;2024-01-07T02:11:42;4.57;;;2.03;;
65567;SDS011;52211;50.154;8.682;2024-01-07T02:14:09;2.53;;;2.30;;
65567;SDS011;52211;50.154;8.682;2024-01-07T02:16:36;2.33;;;1.80;;
65567;SDS011;52211;50.154;8.682;2024-01-07T02:19:08;1.97;;;1.77;;
65567;SDS011;52211;50.154;8.682;2024-01-07T02:21:37;2.73;;;2.23;;
65567;SDS011;52211;50.154;8.682;2024-01-07T02:24:05;2.37;;;1.80;;
65567;SDS011;52211;50.154;8.682;2024-01-07T02:26:37;2.37;;;2.00;;
65567;SDS011;52211;50.154;8.682;2024-01-07T02:29:04;2.47;;;2.27;;
65567;SDS011;52211;50.154;8.682;2024-01-07T02:31:33;3.07;;;2.20;;
65567;SDS011;52211;50.154;8.682;2024-01-07T02:34:00;3.67;;;2.13;;
65567;SDS011;52211;50.154;8.682;2024-01-07T02:36:27;3.10;;;2.03;;
65567;SDS011;52211;50.154;8.682;2024-01-07T02:38:57;2.23;;;2.03;;
65567;SDS011;52211;50.154;8.682;2024-01-07T02:41:24;2.90;;;2.20;;
65567;SDS011;52211;50.154;8.682;2024-01-07T02:43:53;2.37;;;2.00;;
65567;SDS011;52211;50.154;8.682;2024-01-07T02:46:20;2.00;;;1.90;;
65567;SDS011;52211;50.154;8.682;2024-01-07T02:48:50;2.00;;;1.73;;
65567;SDS011;52211;50.154;8.682;2024-01-07T02:51:19;2.60;;;2.40;;
65567;SDS011;52211;50.154;8.682;2024-01-07T02:53:49;2.13;;;1.93;;
65567;SDS011;52211;50.154;8.682;2024-01-07T02:56:16;2.77;;;2.47;;
65567;SDS011;52211;50.154;8.682;2024-01-07T02:58:43;2.70;;;2.37;;
65567;SDS011;52211;50.154;8.682;2024-01-07T03:01:12;2.40;;;2.13;;
65567;SDS011;52211;50.154;8.682;2024-01-07T03:03:39;2.57;;;2.20;;
65567;SDS011;52211;50.154;8.682;2024-01-07T03:06:08;3.50;;;2.70;;
65567;SDS011;52211;50.154;8.682;2024-01-07T03:08:37;2.80;;;2.50;;
65567;SDS011;52211;50.154;8.682;2024-01-07T03:11:07;2.83;;;2.50;;
65567;SDS011;52211;50.154;8.682;2024-01-07T03:13:36;4.27;;;3.07;;
65567;SDS011;52211;50.154;8.682;2024-01-07T03:16:03;4.03;;;3.10;;
65567;SDS011;52211;50.154;8.682;2024-01-07T03:18:31;3.77;;;3.23;;
65567;SDS011;52211;50.154;8.682;2024-01-07T03:20:58;4.33;;;2.73;;
65567;SDS011;52211;50.154;8.682;2024-01-07T03:23:30;5.07;;;3.37;;
65567;SDS011;52211;50.154;8.682;2024-01-07T03:25:59;2.87;;;2.57;;
65567;SDS011;52211;50.154;8.682;2024-01-07T03:28:29;3.83;;;3.07;;
65567;SDS011;52211;50.154;8.682;2024-01-07T03:30:58;3.43;;;3.10;;
65567;SDS011;52211;50.154;8.682;2024-01-07T03:33:25;3.17;;;2.87;;
65567;SDS011;52211;50.154;8.682;2024-01-07T03:35:54;4.20;;;3.40;;
65567;SDS011;52211;50.154;8.682;2024-01-07T03:38:26;3.57;;;2.90;;
65567;SDS011;52211;50.154;8.682;2024-01-07T03:40:58;4.13;;;2.80;;
65567;SDS011;52211;50.154;8.682;2024-01-07T03:43:25;3.30;;;2.80;;
65567;SDS011;52211;50.154;8.682;2024-01-07T03:45:57;4.97;;;3.60;;
65567;SDS011;52211;50.154;8.682;2024-01-07T03:48:25;2.87;;;2.57;;
65567;SDS011;52211;50.154;8.682;2024-01-07T03:50:55;3.93;;;2.93;;
65567;SDS011;52211;50.154;8.682;2024-01-07T03:53:25;2.87;;;2.53;;
65567;SDS011;52211;50.154;8.682;2024-01-07T03:55:54;2.90;;;2.10;;
65567;SDS011;52211;50.154;8.682;2024-01-07T03:58:23;2.73;;;2.50;;
65567;SDS011;52211;50.154;8.682;2024-01-07T04:00:52;2.73;;;2.33;;
65567;SDS011;52211;50.154;8.682;2024-01-07T04:03:22;2.77;;;2.43;;
65567;SDS011;52211;50.154;8.682;2024-01-07T04:05:53;2.83;;;2.63;;
65567;SDS011;52211;50.154;8.682;2024-01-07T04:08:25;2.70;;;2.50;;
65567;SDS011;52211;50.154;8.682;2024-01-07T04:10:57;2.70;;;2.40;;
65567;SDS011;52211;50.154;8.682;2024-01-07T04:13:23;3.77;;;3.27;;
65567;SDS011;52211;50.154;8.682;2024-01-07T04:15:55;4.57;;;3.43;;
65567;SDS011;52211;50.154;8.682;2024-01-07T04:18:24;5.00;;;3.33;;
65567;SDS011;52211;50.154;8.682;2024-01-07T04:20:54;4.37;;;3.07;;
65567;SDS011;52211;50.154;8.682;2024-01-07T04:23:23;4.30;;;3.20;;
65567;SDS011;52211;50.154;8.682;2024-01-07T04:25:50;5.20;;;3.63;;
65567;SDS011;52211;50.154;8.682;2024-01-07T04:28:19;4.33;;;3.43;;
65567;SDS011;52211;50.154;8.682;2024-01-07T04:30:49;6.63;;;4.63;;
65567;SDS011;52211;50.154;8.682;2024-01-07T04:33:20;5.20;;;4.07;;
65567;SDS011;52211;50.154;8.682;2024-01-07T04:35:50;5.30;;;4.60;;
65567;SDS011;52211;50.154;8.682;2024-01-07T04:38:24;5.90;;;4.80;;
65567;SDS011;52211;50.154;8.682;2024-01-07T04:40:58;5.43;;;4.93;;
65567;SDS011;52211;50.154;8.682;2024-01-07T04:43:25;7.40;;;4.57;;
65567;SDS011;52211;50.154;8.682;2024-01-07T04:45:52;6.07;;;5.20;;
65567;SDS011;52211;50.154;8.682;2024-01-07T04:48:21;8.67;;;5.87;;
65567;SDS011;52211;50.154;8.682;2024-01-07T04:50:53;7.80;;;6.23;;
65567;SDS011;52211;50.154;8.682;2024-01-07T04:53:23;7.87;;;6.00;;
65567;SDS011;52211;50.154;8.682;2024-01-07T04:55:50;6.50;;;5.30;;
65567;SDS011;52211;50.154;8.682;2024-01-07T04:58:23;9.20;;;6.33;;
65567;SDS011;52211;50.154;8.682;2024-01-07T05:00:55;7.17;;;5.50;;
65567;SDS011;52211;50.154;8.682;2024-01-07T05:03:24;10.30;;;6.93;;
65567;SDS011;52211;50.154;8.682;2024-01-07T05:05:53;7.40;;;5.80;;
65567;SDS011;52211;50.154;8.682;2024-01-07T05:08:21;7.83;;;5.93;;
65567;SDS011;52211;50.154;8.682;2024-01-07T05:10:54;9.70;;;6.73;;
65567;SDS011;52211;50.154;8.682;2024-01-07T05:13:24;7.73;;;5.77;;
65567;SDS011;52211;50.154;8.682;2024-01-07T05:15:51;7.13;;;6.40;;
65567;SDS011;52211;50.154;8.682;2024-01-07T05:18:21;8.83;;;5.50;;
65567;SDS011;52211;50.154;8.682;2024-01-07T05:20:54;7.67;;;5.97;;
65567;SDS011;52211;50.154;8.682;2024-01-07T05:23:21;9.07;;;6.40;;
65567;SDS011;52211;50.154;8.682;2024-01-07T05:25:48;7.70;;;5.90;;
65567;SDS011;52211;50.154;8.682;2024-01-07T05:28:15;9.40;;;6.57;;
65567;SDS011;52211;50.154;8.682;2024-01-07T05:30:49;8.17;;;6.33;;
65567;SDS011;52211;50.154;8.682;2024-01-07T05:33:18;8.57;;;6.47;;
65567;SDS011;52211;50.154;8.682;2024-01-07T05:35:47;7.80;;;5.83;;
65567;SDS011;52211;50.154;8.682;2024-01-07T05:38:14;6.50;;;5.60;;
65567;SDS011;52211;50.154;8.682;2024-01-07T05:40:46;8.70;;;5.80;;
65567;SDS011;52211;50.154;8.682;2024-01-07T05:43:17;6.10;;;5.37;;
65567;SDS011;52211;50.154;8.682;2024-01-07T05:45:46;5.37;;;4.87;;
65567;SDS011;52211;50.154;8.682;2024-01-07T05:48:15;6.17;;;4.80;;
65567;SDS011;52211;50.154;8.682;2024-01-07T05:50:44;6.17;;;4.73;;
65567;SDS011;52211;50.154;8.682;2024-01-07T05:53:13;4.90;;;4.40;;
65567;SDS011;52211;50.154;8.682;2024-01-07T05:55:40;5.07;;;4.63;;
65567;SDS011;52211;50.154;8.682;2024-01-07T05:58:12;6.67;;;5.00;;
65567;SDS011;52211;50.154;8.682;2024-01-07T06:00:39;5.07;;;4.30;;
65567;SDS011;52211;50.154;8.682;2024-01-07T06:03:08;5.40;;;4.63;;
65567;SDS011;52211;50.154;8.682;2024-01-07T06:05:39;6.57;;;5.13;;
65567;SDS011;52211;50.154;8.682;2024-01-07T06:08:08;5.67;;;4.63;;
65567;SDS011;52211;50.154;8.682;2024-01-07T06:10:39;5.87;;;4.93;;
65567;SDS011;52211;50.154;8.682;2024-01-07T06:13:11;7.40;;;6.00;;
65567;SDS011;52211;50.154;8.682;2024-01-07T06:15:43;5.93;;;5.20;;
65567;SDS011;52211;50.154;8.682;2024-01-07T06:18:10;5.70;;;4.80;;
65567;SDS011;52211;50.154;8.682;2024-01-07T06:20:37;6.27;;;5.10;;
65567;SDS011;52211;50.154;8.682;2024-01-07T06:23:04;6.03;;;4.87;;
65567;SDS011;52211;50.154;8.682;2024-01-07T06:25:33;6.03;;;5.43;;
65567;SDS011;52211;50.154;8.682;2024-01-07T06:28:02;6.77;;;5.43;;
65567;SDS011;52211;50.154;8.682;2024-01-07T06:30:33;6.37;;;5.10;;
65567;SDS011;52211;50.154;8.682;2024-01-07T06:33:02;6.40;;;5.10;;
65567;SDS011;52211;50.154;8.682;2024-01-07T06:35:32;5.93;;;5.17;;
65567;SDS011;52211;50.154;8.682;2024-01-07T06:37:59;8.53;;;5.37;;
65567;SDS011;52211;50.154;8.682;2024-01-07T06:40:28;7.17;;;5.47;;
65567;SDS011;52211;50.154;8.682;2024-01-07T06:42:55;7.17;;;6.03;;
65567;SDS011;52211;50.154;8.682;2024-01-07T06:45:22;8.17;;;5.97;;
65567;SDS011;52211;50.154;8.682;2024-01-07T06:47:49;7.17;;;5.77;;
65567;SDS011;52211;50.154;8.682;2024-01-07T06:50:20;8.67;;;6.67;;
65567;SDS011;52211;50.154;8.682;2024-01-07T06:52:47;6.27;;;5.53;;
65567;SDS011;52211;50.154;8.682;2024-01-07T06:55:16;8.53;;;6.33;;
65567;SDS011;52211;50.154;8.682;2024-01-07T06:57:47;9.00;;;6.73;;
65567;SDS011;52211;50.154;8.682;2024-01-07T07:00:14;9.17;;;6.40;;
65567;SDS011;52211;50.154;8.682;2024-01-07T07:02:42;9.13;;;6.77;;
65567;SDS011;52211;50.154;8.682;2024-01-07T07:05:08;8.97;;;6.67;;
65567;SDS011;52211;50.154;8.682;2024-01-07T07:07:38;9.07;;;6.63;;
65567;SDS011;52211;50.154;8.682;2024-01-07T07:10:05;11.40;;;6.93;;
65567;SDS011;52211;50.154;8.682;2024-01-07T07:12:35;11.57;;;7.67;;
65567;SDS011;52211;50.154;8.682;2024-01-07T07:15:02;8.43;;;6.87;;
65567;SDS011;52211;50.154;8.682;2024-01-07T07:17:33;9.43;;;6.93;;
65567;SDS011;52211;50.154;8.682;2024-01-07T07:20:03;8.20;;;6.70;;
65567;SDS011;52211;50.154;8.682;2024-01-07T07:22:32;9.10;;;7.00;;
65567;SDS011;52211;50.154;8.682;2024-01-07T07:24:59;9.53;;;6.87;;
65567;SDS011;52211;50.154;8.682;2024-01-07T07:27:28;7.57;;;6.63;;
65567;SDS011;52211;50.154;8.682;2024-01-07T07:29:55;8.43;;;6.70;;
65567;SDS011;52211;50.154;8.682;2024-01-07T07:32:25;8.70;;;7.07;;
65567;SDS011;52211;50.154;8.682;2024-01-07T07:34:54;8.87;;;6.47;;
65567;SDS011;52211;50.154;8.682;2024-01-07T07:37:24;10.00;;;7.23;;
65567;SDS011;52211;50.154;8.682;2024-01-07T07:39:51;10.00;;;7.97;;
65567;SDS011;52211;50.154;8.682;2024-01-07T07:42:18;8.27;;;6.30;;
65567;SDS011;52211;50.154;8.682;2024-01-07T07:44:45;10.27;;;7.27;;
65567;SDS011;52211;50.154;8.682;2024-01-07T07:47:14;9.37;;;6.73;;
65567;SDS011;52211;50.154;8.682;2024-01-07T07:49:43;9.87;;;7.60;;
65567;SDS011;52211;50.154;8.682;2024-01-07T07:52:13;11.90;;;7.60;;
65567;SDS011;52211;50.154;8.682;2024-01-07T07:54:40;10.77;;;7.13;;
65567;SDS011;52211;50.154;8.682;2024-01-07T07:57:07;9.80;;;7.03;;
65567;SDS011;52211;50.154;8.682;2024-01-07T07:59:36;11.27;;;7.80;;
65567;SDS011;52211;50.154;8.682;2024-01-07T08:02:03;10.57;;;6.70;;
65567;SDS011;52211;50.154;8.682;2024-01-07T08:04:31;10.40;;;7.50;;
65567;SDS011;52211;50.154;8.682;2024-01-07T08:07:00;12.30;;;7.33;;
65567;SDS011;52211;50.154;8.682;2024-01-07T08:09:29;12.23;;;7.90;;
65567;SDS011;52211;50.154;8.682;2024-01-07T08:11:56;11.73;;;8.53;;
65567;SDS011;52211;50.154;8.682;2024-01-07T08:14:25;13.70;;;9.73;;
65567;SDS011;52211;50.154;8.682;2024-01-07T08:16:57;11.77;;;8.37;;
65567;SDS011;52211;50.154;8.682;2024-01-07T08:19:29;16.17;;;9.53;;
65567;SDS011;52211;50.154;8.682;2024-01-07T08:21:55;11.70;;;8.37;;
65567;SDS011;52211;50.154;8.682;2024-01-07T08:24:27;12.93;;;8.73;;
65567;SDS011;52211;50.154;8.682;2024-01-07T08:26:59;12.53;;;9.13;;
65567;SDS011;52211;50.154;8.682;2024-01-07T08:29:26;13.00;;;8.43;;
65567;SDS011;52211;50.154;8.682;2024-01-07T08:31:55;11.47;;;8.77;;
65567;SDS011;52211;50.154;8.682;2024-01-07T08:34:27;12.13;;;7.70;;
65567;SDS011;52211;50.154;8.682;2024-01-07T08:36:54;11.43;;;7.90;;
65567;SDS011;52211;50.154;8.682;2024-01-07T08:39:23;11.73;;;8.43;;
65567;SDS011;52211;50.154;8.682;2024-01-07T08:41:52;10.53;;;8.17;;
65567;SDS011;52211;50.154;8.682;2024-01-07T08:44:24;11.57;;;8.47;;
65567;SDS011;52211;50.154;8.682;2024-01-07T08:46:51;11.40;;;8.30;;
65567;SDS011;52211;50.154;8.682;2024-01-07T08:49:21;14.93;;;9.27;;
65567;SDS011;52211;50.154;8.682;2024-01-07T08:51:48;12.33;;;7.93;;
65567;SDS011;52211;50.154;8.682;2024-01-07T08:54:15;12.60;;;8.40;;
65567;SDS011;52211;50.154;8.682;2024-01-07T08:56:42;11.07;;;8.27;;
65567;SDS011;52211;50.154;8.682;2024-01-07T08:59:12;11.40;;;8.30;;
65567;SDS011;52211;50.154;8.682;2024-01-07T09:01:41;10.23;;;8.03;;
65567;SDS011;52211;50.154;8.682;2024-01-07T09:04:10;10.63;;;8.33;;
65567;SDS011;52211;50.154;8.682;2024-01-07T09:06:40;11.43;;;8.27;;
65567;SDS011;52211;50.154;8.682;2024-01-07T09:09:09;10.93;;;8.53;;
65567;SDS011;52211;50.154;8.682;2024-01-07T09:11:36;10.90;;;8.53;;
65567;SDS011;52211;50.154;8.682;2024-01-07T09:14:06;9.50;;;8.03;;
65567;SDS011;52211;50.154;8.682;2024-01-07T09:16:35;9.90;;;7.03;;
65567;SDS011;52211;50.154;8.682;2024-01-07T09:19:04;9.57;;;7.50;;
65567;SDS011;52211;50.154;8.682;2024-01-07T09:21:40;9.17;;;6.83;;
65567;SDS011;52211;50.154;8.682;2024-01-07T09:24:11;9.80;;;7.20;;
65567;SDS011;52211;50.154;8.682;2024-01-07T09:26:38;7.80;;;6.37;;
65567;SDS011;52211;50.154;8.682;2024-01-07T09:29:07;8.80;;;6.70;;
65567;SDS011;52211;50.154;8.682;2024-01-07T09:31:35;9.27;;;7.00;;
65567;SDS011;52211;50.154;8.682;2024-01-07T09:34:02;9.97;;;6.53;;
65567;SDS011;52211;50.154;8.682;2024-01-07T09:36:33;6.90;;;6.20;;
65567;SDS011;52211;50.154;8.682;2024-01-07T09:39:02;7.00;;;6.03;;
65567;SDS011;52211;50.154;8.682;2024-01-07T09:41:32;6.57;;;5.80;;
65567;SDS011;52211;50.154;8.682;2024-01-07T09:44:03;7.37;;;5.07;;
65567;SDS011;52211;50.154;8.682;2024-01-07T09:46:35;7.10;;;5.33;;
65567;SDS011;52211;50.154;8.682;2024-01-07T09:49:07;8.00;;;5.67;;
65567;SDS011;52211;50.154;8.682;2024-01-07T09:51:39;6.60;;;5.80;;
65567;SDS011;52211;50.154;8.682;2024-01-07T09:54:11;7.63;;;5.97;;
65567;SDS011;52211;50.154;8.682;2024-01-07T09:56:50;6.30;;;5.00;;
65567;SDS011;52211;50.154;8.682;2024-01-07T09:59:27;7.27;;;5.03;;
65567;SDS011;52211;50.154;8.682;2024-01-07T10:01:57;5.90;;;5.23;;
65567;SDS011;52211;50.154;8.682;2024-01-07T10:04:25;6.20;;;5.43;;
65567;SDS011;52211;50.154;8.682;2024-01-07T10:07:02;6.23;;;5.53;;
65567;SDS011;52211;50.154;8.682;2024-01-07T10:09:29;6.83;;;5.77;;
65567;SDS011;52211;50.154;8.682;2024-01-07T10:12:02;5.70;;;4.83;;
65567;SDS011;52211;50.154;8.682;2024-01-07T10:14:32;6.50;;;5.23;;
65567;SDS011;52211;50.154;8.682;2024-01-07T10:17:05;5.97;;;5.37;;
65567;SDS011;52211;50.154;8.682;2024-01-07T10:19:45;6.83;;;5.40;;
65567;SDS011;52211;50.154;8.682;2024-01-07T10:22:15;6.00;;;5.40;;
65567;SDS011;52211;50.154;8.682;2024-01-07T10:24:44;6.27;;;5.30;;
65567;SDS011;52211;50.154;8.682;2024-01-07T10:27:12;6.63;;;5.63;;
65567;SDS011;52211;50.154;8.682;2024-01-07T10:29:39;7.67;;;5.63;;
65567;SDS011;52211;50.154;8.682;2024-01-07T10:32:08;7.30;;;5.40;;
65567;SDS011;52211;50.154;8.682;2024-01-07T10:34:40;6.40;;;5.77;;
65567;SDS011;52211;50.154;8.682;2024-01-07T10:37:15;7.97;;;5.83;;
65567;SDS011;52211;50.154;8.682;2024-01-07T10:39:42;6.97;;;5.80;;
65567;SDS011;52211;50.154;8.682;2024-01-07T10:42:12;7.97;;;6.83;;
65567;SDS011;52211;50.154;8.682;2024-01-07T10:44:40;6.37;;;5.57;;
65567;SDS011;52211;50.154;8.682;2024-01-07T10:47:11;7.37;;;5.80;;
65567;SDS011;52211;50.154;8.682;2024-01-07T10:49:40;7.27;;;6.20;;
65567;SDS011;52211;50.154;8.682;2024-01-07T10:52:14;9.03;;;6.53;;
65567;SDS011;52211;50.154;8.682;2024-01-07T10:54:45;6.10;;;5.27;;
65567;SDS011;52211;50.154;8.682;2024-01-07T10:57:21;6.80;;;6.10;;
65567;SDS011;52211;50.154;8.682;2024-01-07T11:00:09;9.17;;;6.60;;
65567;SDS011;52211;50.154;8.682;2024-01-07T11:02:48;6.50;;;5.77;;
65567;SDS011;52211;50.154;8.682;2024-01-07T11:05:33;7.17;;;6.47;;
65567;SDS011;52211;50.154;8.682;2024-01-07T11:08:23;6.63;;;5.93;;
65567;SDS011;52211;50.154;8.682;2024-01-07T11:11:02;8.33;;;6.17;;
65567;SDS011;52211;50.154;8.682;2024-01-07T11:13:39;7.43;;;5.70;;
65567;SDS011;52211;50.154;8.682;2024-01-07T11:16:10;5.93;;;5.33;;
65567;SDS011;52211;50.154;8.682;2024-01-07T11:18:39;7.00;;;5.80;;
65567;SDS011;52211;50.154;8.682;2024-01-07T11:21:12;8.13;;;6.50;;
65567;SDS011;52211;50.154;8.682;2024-01-07T11:23:51;6.87;;;5.67;;
65567;SDS011;52211;50.154;8.682;2024-01-07T11:26:21;7.43;;;5.70;;
65567;SDS011;52211;50.154;8.682;2024-01-07T11:28:51;7.83;;;6.53;;
65567;SDS011;52211;50.154;8.682;2024-01-07T11:34:06;9.07;;;6.07;;
65567;SDS011;52211;50.154;8.682;2024-01-07T11:36:38;6.87;;;6.17;;
65567;SDS011;52211;50.154;8.682;2024-01-07T11:39:12;7.27;;;6.20;;
65567;SDS011;52211;50.154;8.682;2024-01-07T11:41:39;6.33;;;5.73;;
65567;SDS011;52211;50.154;8.682;2024-01-07T11:44:10;7.17;;;5.90;;
65567;SDS011;52211;50.154;8.682;2024-01-07T11:46:43;7.73;;;6.37;;
65567;SDS011;52211;50.154;8.682;2024-01-07T11:49:11;6.60;;;5.87;;
65567;SDS011;52211;50.154;8.682;2024-01-07T11:51:43;7.13;;;5.93;;
65567;SDS011;52211;50.154;8.682;2024-01-07T11:54:12;6.90;;;6.07;;
65567;SDS011;52211;50.154;8.682;2024-01-07T11:56:41;9.33;;;6.90;;
65567;SDS011;52211;50.154;8.682;2024-01-07T11:59:12;6.83;;;6.00;;
65567;SDS011;52211;50.154;8.682;2024-01-07T12:01:49;9.10;;;6.30;;
65567;SDS011;52211;50.154;8.682;2024-01-07T12:04:20;8.27;;;6.00;;
65567;SDS011;52211;50.154;8.682;2024-01-07T12:06:55;10.67;;;6.90;;
65567;SDS011;52211;50.154;8.682;2024-01-07T12:09:22;8.40;;;6.67;;
65567;SDS011;52211;50.154;8.682;2024-01-07T12:11:49;7.53;;;5.73;;
65567;SDS011;52211;50.154;8.682;2024-01-07T12:14:17;8.63;;;6.57;;
65567;SDS011;52211;50.154;8.682;2024-01-07T12:16:45;7.63;;;6.03;;
65567;SDS011;52211;50.154;8.682;2024-01-07T12:19:16;8.30;;;6.50;;
65567;SDS011;52211;50.154;8.682;2024-01-07T12:21:50;8.37;;;6.40;;
65567;SDS011;52211;50.154;8.682;2024-01-07T12:24:36;8.43;;;6.13;;
65567;SDS011;52211;50.154;8.682;2024-01-07T12:27:05;7.00;;;5.80;;
65567;SDS011;52211;50.154;8.682;2024-01-07T12:29:35;7.20;;;5.63;;
65567;SDS011;52211;50.154;8.682;2024-01-07T12:32:02;6.17;;;5.17;;
65567;SDS011;52211;50.154;8.682;2024-01-07T12:34:36;7.97;;;6.17;;
65567;SDS011;52211;50.154;8.682;2024-01-07T12:37:05;7.70;;;6.10;;
65567;SDS011;52211;50.154;8.682;2024-01-07T12:39:38;8.47;;;6.13;;
65567;SDS011;52211;50.154;8.682;2024-01-07T12:42:05;7.33;;;5.97;;
65567;SDS011;52211;50.154;8.682;2024-01-07T12:44:38;8.37;;;6.47;;
65567;SDS011;52211;50.154;8.682;2024-01-07T12:47:06;8.23;;;6.07;;
65567;SDS011;52211;50.154;8.682;2024-01-07T12:49:35;8.73;;;5.97;;
65567;SDS011;52211;50.154;8.682;2024-01-07T12:52:09;10.17;;;6.93;;
65567;SDS011;52211;50.154;8.682;2024-01-07T12:54:41;11.63;;;7.33;;
65567;SDS011;52211;50.154;8.682;2024-01-07T12:57:11;7.53;;;5.13;;
65567;SDS011;52211;50.154;8.682;2024-01-07T12:59:43;11.20;;;6.03;;
65567;SDS011;52211;50.154;8.682;2024-01-07T13:02:10;7.77;;;5.77;;
65567;SDS011;52211;50.154;8.682;2024-01-07T13:04:41;6.33;;;5.30;;
65567;SDS011;52211;50.154;8.682;2024-01-07T13:07:08;6.77;;;5.43;;
65567;SDS011;52211;50.154;8.682;2024-01-07T13:09:38;7.07;;;5.63;;
65567;SDS011;52211;50.154;8.682;2024-01-07T13:12:05;7.47;;;5.47;;
65567;SDS011;52211;50.154;8.682;2024-01-07T13:14:32;5.63;;;4.50;;
65567;SDS011;52211;50.154;8.682;2024-01-07T13:17:01;7.17;;;5.53;;
65567;SDS011;52211;50.154;8.682;2024-01-07T13:19:31;6.53;;;5.07;;
65567;SDS011;52211;50.154;8.682;2024-01-07T13:21:58;7.20;;;5.10;;
65567;SDS011;52211;50.154;8.682;2024-01-07T13:24:27;5.10;;;4.60;;
65567;SDS011;52211;50.154;8.682;2024-01-07T13:26:57;5.77;;;4.73;;
65567;SDS011;52211;50.154;8.682;2024-01-07T13:29:24;5.70;;;4.50;;
65567;SDS011;52211;50.154;8.682;2024-01-07T13:31:51;6.03;;;4.77;;
65567;SDS011;52211;50.154;8.682;2024-01-07T13:34:21;5.97;;;5.00;;
65567;SDS011;52211;50.154;8.682;2024-01-07T13:36:50;6.97;;;5.10;;
65567;SDS011;52211;50.154;8.682;2024-01-07T13:39:22;8.17;;;4.90;;
65567;SDS011;52211;50.154;8.682;2024-01-07T13:41:53;7.00;;;5.87;;
65567;SDS011;52211;50.154;8.682;2024-01-07T13:44:24;7.57;;;5.03;;
65567;SDS011;52211;50.154;8.682;2024-01-07T13:46:54;6.00;;;4.40;;
65567;SDS011;52211;50.154;8.682;2024-01-07T13:49:23;7.47;;;5.03;;
65567;SDS011;52211;50.154;8.682;2024-01-07T13:51:52;7.13;;;5.47;;
65567;SDS011;52211;50.154;8.682;2024-01-07T13:54:25;5.00;;;4.40;;
65567;SDS011;52211;50.154;8.682;2024-01-07T13:56:54;4.97;;;4.40;;
65567;SDS011;52211;50.154;8.682;2024-01-07T13:59:24;4.87;;;4.07;;
65567;SDS011;52211;50.154;8.682;2024-01-07T14:01:55;6.10;;;4.10;;
65567;SDS011;52211;50.154;8.682;2024-01-07T14:04:30;4.57;;;4.17;;
65567;SDS011;52211;50.154;8.682;2024-01-07T14:07:00;5.93;;;4.20;;
65567;SDS011;52211;50.154;8.682;2024-01-07T14:09:30;4.10;;;3.47;;
65567;SDS011;52211;50.154;8.682;2024-01-07T14:12:00;4.90;;;3.93;;
65567;SDS011;52211;50.154;8.682;2024-01-07T14:14:29;4.37;;;3.47;;
65567;SDS011;52211;50.154;8.682;2024-01-07T14:16:56;4.20;;;3.47;;
65567;SDS011;52211;50.154;8.682;2024-01-07T14:19:25;4.53;;;3.60;;
65567;SDS011;52211;50.154;8.682;2024-01-07T14:21:55;4.37;;;3.97;;
65567;SDS011;52211;50.154;8.682;2024-01-07T14:24:22;3.70;;;3.40;;
65567;SDS011;52211;50.154;8.682;2024-01-07T14:26:49;4.67;;;3.53;;
65567;SDS011;52211;50.154;8.682;2024-01-07T14:29:22;5.97;;;3.80;;
65567;SDS011;52211;50.154;8.682;2024-01-07T14:31:53;3.70;;;3.33;;
65567;SDS011;52211;50.154;8.682;2024-01-07T14:34:25;4.27;;;3.70;;
65567;SDS011;52211;50.154;8.682;2024-01-07T14:36:52;3.80;;;3.40;;
65567;SDS011;52211;50.154;8.682;2024-01-07T14:39:21;4.43;;;3.30;;
65567;SDS011;52211;50.154;8.682;2024-01-07T14:41:48;4.00;;;3.30;;
65567;SDS011;52211;50.154;8.682;2024-01-07T14:44:15;2.87;;;2.67;;
65567;SDS011;52211;50.154;8.682;2024-01-07T14:46:43;3.97;;;3.10;;
65567;SDS011;52211;50.154;8.682;2024-01-07T14:49:12;3.23;;;2.93;;
65567;SDS011;52211;50.154;8.682;2024-01-07T14:51:39;3.67;;;3.37;;
65567;SDS011;52211;50.154;8.682;2024-01-07T14:54:08;4.27;;;2.73;;
65567;SDS011;52211;50.154;8.682;2024-01-07T14:56:35;3.33;;;2.63;;
65567;SDS011;52211;50.154;8.682;2024-01-07T14:59:02;3.23;;;2.53;;
65567;SDS011;52211;50.154;8.682;2024-01-07T15:01:31;3.00;;;2.70;;
65567;SDS011;52211;50.154;8.682;2024-01-07T15:03:58;3.00;;;2.37;;